Time;durP1;ratioP1;P1;durP2;ratioP2;P2;SDS_P1;SDS_P2;PMS_P1;PMS_P2;Temp;Humidity;BMP_temperature;BMP_pressure;BME280_temperature;BME280_humidity;BME280_pressure;Samples;Min_cycle;Max_cycle;Signal;HPM_P1;HPM_P2
2022/11/13 00:00:10;;;;;;;;;;;;;;;;;;940735;27;20250;-77
2022/11/13 00:00:43;;;;;;;;;;;;;;;;;;940834;27;19926;-77
2022/11/13 00:01:19;;;;;;;;;;;;;;;;;;940716;27;19907;-76
2022/11/13 00:01:51;;;;;;;;;;;;;;;;;;940739;27;19907;-78
2022/11/13 00:02:24;;;;;;;;;;;;;;;;;;940736;27;19907;-77
2022/11/13 00:02:55;;;;;;;;;;;;;;;;;;940840;27;20155;-77
2022/11/13 00:03:28;;;;;;;;;;;;;;;;;;940771;27;19918;-77
2022/11/13 00:04:01;;;;;;;;;;;;;;;;;;940698;27;19918;-76
2022/11/13 00:04:32;;;;;;;;;;;;;;;;;;940749;27;19907;-76
2022/11/13 00:05:03;;;;;;;;;;;;;;;;;;940866;27;19908;-75
2022/11/13 00:05:36;;;;;;;;;;;;;;;;;;940821;27;19907;-75
2022/11/13 00:06:07;;;;;;;;;;;;;;;;;;940851;27;19907;-77
2022/11/13 00:06:37;;;;;;;;;;;;;;;;;;940808;27;19907;-75
2022/11/13 00:07:11;;;;;;;;;;;;;;;;;;940972;27;19903;-75
2022/11/13 00:07:41;;;;;;;;;;;;;;;;;;940841;27;19918;-77
2022/11/13 00:08:12;;;;;;;;;;;;;;;;;;940770;27;19907;-75
2022/11/13 00:08:45;;;;;;;;;;;;;;;;;;940919;27;19915;-75
2022/11/13 00:09:16;;;;;;;;;;;;;;;;;;940732;27;19907;-76
2022/11/13 00:09:46;;;;;;;;;;;;;;;;;;940684;27;19915;-76
2022/11/13 00:10:20;;;;;;;;;;;;;;;;;;940778;27;19915;-75
2022/11/13 00:10:50;;;;;;;;;;;;;;;;;;940870;27;19911;-75
2022/11/13 00:11:24;;;;;;;;;;;;;;;;;;940797;27;20222;-75
2022/11/13 00:11:54;;;;;;;;;;;;;;;;;;940772;27;20217;-75
2022/11/13 00:12:25;;;;;;;;;;;;;;;;;;940750;27;19907;-75
2022/11/13 00:12:58;;;;;;;;;;;;;;;;;;941013;27;19925;-76
2022/11/13 00:13:29;;;;;;;;;;;;;;;;;;940879;27;19956;-76
2022/11/13 00:14:03;;;;;;;;;;;;;;;;;;940868;27;20258;-76
2022/11/13 00:14:33;;;;;;;;;;;;;;;;;;940847;27;20483;-76
2022/11/13 00:15:04;;;;;;;;;;;;;;;;;;940917;27;19918;-75
2022/11/13 00:15:38;;;;;;;;;;;;;;;;;;940899;27;19911;-75
2022/11/13 00:16:10;;;;;;;;;;;;;;;;;;940951;27;20159;-76
2022/11/13 00:16:46;;;;;;;;;;;;;;;;;;940856;27;19973;-75
2022/11/13 00:17:16;;;;;;;;;;;;;;;;;;940940;27;20160;-75
2022/11/13 00:17:47;;;;;;;;;;;;;;;;;;940649;27;19908;-76
2022/11/13 00:18:20;;;;;;;;;;;;;;;;;;940917;27;20455;-76
2022/11/13 00:18:51;;;;;;;;;;;;;;;;;;940766;27;19918;-76
2022/11/13 00:19:24;;;;;;;;;;;;;;;;;;940866;27;19918;-75
2022/11/13 00:19:55;;;;;;;;;;;;;;;;;;940833;27;19918;-75
2022/11/13 00:20:26;;;;;;;;;;;;;;;;;;940820;27;19914;-76
2022/11/13 00:20:59;;;;;;;;;;;;;;;;;;940811;27;20203;-75
2022/11/13 00:21:29;;;;;;;;;;;;;;;;;;940843;27;20159;-75
2022/11/13 00:22:00;;;;;;;;;;;;;;;;;;940936;27;19907;-75
2022/11/13 00:22:33;;;;;;;;;;;;;;;;;;940779;27;19953;-76
2022/11/13 00:23:04;;;;;;;;;;;;;;;;;;940705;27;19925;-76
2022/11/13 00:23:35;;;;;;;;;;;;;;;;;;940835;27;19907;-76
2022/11/13 00:24:09;;;;;;;;;;;;;;;;;;940764;27;20259;-76
2022/11/13 00:24:39;;;;;;;;;;;;;;;;;;940596;27;19911;-76
2022/11/13 00:25:10;;;;;;;;;;;;;;;;;;940789;27;19908;-76
2022/11/13 00:25:43;;;;;;;;;;;;;;;;;;940729;27;19960;-75
2022/11/13 00:26:15;;;;;;;;;;;;;;;;;;940916;27;19908;-75
2022/11/13 00:26:48;;;;;;;;;;;;;;;;;;940745;27;19912;-75
2022/11/13 00:27:20;;;;;;;;;;;;;;;;;;940717;27;19907;-75
2022/11/13 00:27:51;;;;;;;;;;;;;;;;;;940750;27;19907;-75
2022/11/13 00:28:24;;;;;;;;;;;;;;;;;;940708;27;19911;-76
2022/11/13 00:28:56;;;;;;;;;;;;;;;;;;940697;27;19961;-75
2022/11/13 00:29:26;;;;;;;;;;;;;;;;;;940666;27;19911;-76
2022/11/13 00:30:00;;;;;;;;;;;;;;;;;;940615;27;20163;-78
2022/11/13 00:30:30;;;;;;;;;;;;;;;;;;940738;27;19911;-78
2022/11/13 00:31:01;;;;;;;;;;;;;;;;;;940431;27;19931;-77
2022/11/13 00:31:34;;;;;;;;;;;;;;;;;;940681;27;19959;-77
2022/11/13 00:32:08;;;;;;;;;;;;;;;;;;940623;28;19907;-75
2022/11/13 00:32:39;;;;;;;;;;;;;;;;;;940697;27;19907;-75
2022/11/13 00:33:09;;;;;;;;;;;;;;;;;;940651;27;20168;-75
2022/11/13 00:33:43;;;;;;;;;;;;;;;;;;940793;27;19926;-75
2022/11/13 00:34:13;;;;;;;;;;;;;;;;;;940729;27;19915;-77
2022/11/13 00:34:44;;;;;;;;;;;;;;;;;;940584;27;19903;-74
2022/11/13 00:35:17;;;;;;;;;;;;;;;;;;940858;27;19903;-74
2022/11/13 00:35:48;;;;;;;;;;;;;;;;;;940627;27;19908;-77
2022/11/13 00:36:19;;;;;;;;;;;;;;;;;;940667;27;19907;-78
2022/11/13 00:36:53;;;;;;;;;;;;;;;;;;940583;27;19998;-77
2022/11/13 00:37:23;;;;;;;;;;;;;;;;;;940638;27;19907;-77
2022/11/13 00:37:54;;;;;;;;;;;;;;;;;;940725;27;19907;-77
2022/11/13 00:38:27;;;;;;;;;;;;;;;;;;940673;27;19961;-77
2022/11/13 00:38:58;;;;;;;;;;;;;;;;;;940626;27;19907;-77
2022/11/13 00:39:31;;;;;;;;;;;;;;;;;;940763;27;19912;-76
2022/11/13 00:40:02;;;;;;;;;;;;;;;;;;940686;27;19907;-78
2022/11/13 00:40:32;;;;;;;;;;;;;;;;;;940669;27;20247;-77
2022/11/13 00:41:06;;;;;;;;;;;;;;;;;;940546;27;19907;-77
2022/11/13 00:41:36;;;;;;;;;;;;;;;;;;940660;27;19907;-77
2022/11/13 00:42:07;;;;;;;;;;;;;;;;;;940825;27;19961;-77
2022/11/13 00:42:40;;;;;;;;;;;;;;;;;;941176;27;19926;-77
2022/11/13 00:43:11;;;;;;;;;;;;;;;;;;941140;27;19907;-77
2022/11/13 00:43:42;;;;;;;;;;;;;;;;;;941129;27;19907;-77
2022/11/13 00:44:15;;;;;;;;;;;;;;;;;;941239;27;19960;-78
2022/11/13 00:44:46;;;;;;;;;;;;;;;;;;941096;27;19907;-77
2022/11/13 00:45:16;;;;;;;;;;;;;;;;;;941170;27;19918;-77
2022/11/13 00:45:50;;;;;;;;;;;;;;;;;;941214;27;20166;-77
2022/11/13 00:46:20;;;;;;;;;;;;;;;;;;941146;27;19907;-78
2022/11/13 00:46:54;;;;;;;;;;;;;;;;;;941199;27;19918;-77
2022/11/13 00:47:27;;;;;;;;;;;;;;;;;;941119;27;19907;-78
2022/11/13 00:47:57;;;;;;;;;;;;;;;;;;941109;27;19907;-78
2022/11/13 00:48:31;;;;;;;;;;;;;;;;;;941176;27;19907;-77
2022/11/13 00:49:02;;;;;;;;;;;;;;;;;;941098;27;20187;-77
2022/11/13 00:49:32;;;;;;;;;;;;;;;;;;941238;27;20281;-74
2022/11/13 00:50:06;;;;;;;;;;;;;;;;;;941130;27;19946;-75
2022/11/13 00:50:37;;;;;;;;;;;;;;;;;;941206;27;19907;-74
2022/11/13 00:51:07;;;;;;;;;;;;;;;;;;941043;27;19908;-75
2022/11/13 00:51:41;;;;;;;;;;;;;;;;;;941205;27;19921;-75
2022/11/13 00:52:11;;;;;;;;;;;;;;;;;;941063;27;20229;-76
2022/11/13 00:52:42;;;;;;;;;;;;;;;;;;941207;27;19907;-75
2022/11/13 00:53:13;;;;;;;;;;;;;;;;;;941169;27;19907;-75
2022/11/13 00:53:46;;;;;;;;;;;;;;;;;;941271;27;19908;-75
2022/11/13 00:54:16;;;;;;;;;;;;;;;;;;941149;27;19907;-76
2022/11/13 00:54:47;;;;;;;;;;;;;;;;;;941169;27;19954;-75
2022/11/13 00:55:18;;;;;;;;;;;;;;;;;;941094;27;19921;-75
2022/11/13 00:55:51;;;;;;;;;;;;;;;;;;941285;27;19963;-75
2022/11/13 00:56:22;;;;;;;;;;;;;;;;;;941181;27;19912;-75
2022/11/13 00:56:52;;;;;;;;;;;;;;;;;;941201;27;19912;-75
2022/11/13 00:57:26;;;;;;;;;;;;;;;;;;941130;27;20113;-74
2022/11/13 00:57:56;;;;;;;;;;;;;;;;;;941148;27;19912;-75
2022/11/13 00:58:27;;;;;;;;;;;;;;;;;;941231;27;20212;-75
2022/11/13 00:59:00;;;;;;;;;;;;;;;;;;941393;27;20175;-75
2022/11/13 00:59:31;;;;;;;;;;;;;;;;;;941104;27;19917;-74
2022/11/13 01:00:03;;;;;;;;;;;;;;;;;;941180;27;20164;-75
2022/11/13 01:00:36;;;;;;;;;;;;;;;;;;941138;27;19922;-73
2022/11/13 01:01:08;;;;;;;;;;;;;;;;;;941150;27;19907;-75
2022/11/13 01:01:39;;;;;;;;;;;;;;;;;;941184;27;19907;-75
2022/11/13 01:02:14;;;;;;;;;;;;;;;;;;941210;27;19911;-75
2022/11/13 01:02:47;;;;;;;;;;;;;;;;;;941244;27;19915;-75
2022/11/13 01:03:18;;;;;;;;;;;;;;;;;;941201;27;19917;-75
2022/11/13 01:03:51;;;;;;;;;;;;;;;;;;941164;27;19922;-76
2022/11/13 01:04:21;;;;;;;;;;;;;;;;;;941099;27;19907;-74
2022/11/13 01:04:52;;;;;;;;;;;;;;;;;;941058;27;19907;-78
2022/11/13 01:05:25;;;;;;;;;;;;;;;;;;941130;27;19916;-75
2022/11/13 01:05:56;;;;;;;;;;;;;;;;;;941242;27;19919;-75
2022/11/13 01:06:27;;;;;;;;;;;;;;;;;;941129;27;19922;-75
2022/11/13 01:07:00;;;;;;;;;;;;;;;;;;941159;27;19953;-75
2022/11/13 01:07:31;;;;;;;;;;;;;;;;;;941173;27;20152;-74
2022/11/13 01:08:02;;;;;;;;;;;;;;;;;;941200;27;19908;-75
2022/11/13 01:08:35;;;;;;;;;;;;;;;;;;941253;27;19994;-74
2022/11/13 01:09:05;;;;;;;;;;;;;;;;;;941251;27;19907;-75
2022/11/13 01:09:36;;;;;;;;;;;;;;;;;;941072;27;20152;-75
2022/11/13 01:10:10;;;;;;;;;;;;;;;;;;941228;27;19907;-75
2022/11/13 01:10:46;;;;;;;;;;;;;;;;;;941087;27;19945;-74
2022/11/13 01:11:18;;;;;;;;;;;;;;;;;;941092;27;20426;-75
2022/11/13 01:11:51;;;;;;;;;;;;;;;;;;941176;27;19915;-75
2022/11/13 01:12:21;;;;;;;;;;;;;;;;;;941144;27;19913;-75
2022/11/13 01:12:55;;;;;;;;;;;;;;;;;;941174;27;19918;-75
2022/11/13 01:13:25;;;;;;;;;;;;;;;;;;941259;27;19907;-75
2022/11/13 01:13:56;;;;;;;;;;;;;;;;;;941146;27;19907;-75
2022/11/13 01:14:29;;;;;;;;;;;;;;;;;;941191;27;20041;-75
2022/11/13 01:15:00;;;;;;;;;;;;;;;;;;941212;27;19984;-74
2022/11/13 01:15:31;;;;;;;;;;;;;;;;;;941144;27;19953;-74
2022/11/13 01:16:04;;;;;;;;;;;;;;;;;;941254;27;19908;-75
2022/11/13 01:16:37;;;;;;;;;;;;;;;;;;941158;27;19918;-74
2022/11/13 01:17:08;;;;;;;;;;;;;;;;;;941113;27;19907;-74
2022/11/13 01:17:39;;;;;;;;;;;;;;;;;;941170;27;19923;-74
2022/11/13 01:18:15;;;;;;;;;;;;;;;;;;941284;27;19907;-75
2022/11/13 01:18:45;;;;;;;;;;;;;;;;;;941126;27;19908;-75
2022/11/13 01:19:16;;;;;;;;;;;;;;;;;;941087;27;19908;-75
2022/11/13 01:19:49;;;;;;;;;;;;;;;;;;941111;27;20052;-75
2022/11/13 01:20:20;;;;;;;;;;;;;;;;;;941139;27;19907;-76
2022/11/13 01:20:51;;;;;;;;;;;;;;;;;;941075;27;19908;-74
2022/11/13 01:21:22;;;;;;;;;;;;;;;;;;941304;27;19912;-74
2022/11/13 01:21:56;;;;;;;;;;;;;;;;;;941203;27;19907;-74
2022/11/13 01:22:26;;;;;;;;;;;;;;;;;;941129;27;19907;-75
2022/11/13 01:22:57;;;;;;;;;;;;;;;;;;941269;27;19915;-75
2022/11/13 01:23:30;;;;;;;;;;;;;;;;;;941161;27;19907;-75
2022/11/13 01:24:01;;;;;;;;;;;;;;;;;;941180;27;19918;-75
2022/11/13 01:24:31;;;;;;;;;;;;;;;;;;941166;27;19919;-74
2022/11/13 01:25:05;;;;;;;;;;;;;;;;;;941106;27;19923;-75
2022/11/13 01:25:36;;;;;;;;;;;;;;;;;;941125;27;19908;-75
2022/11/13 01:26:08;;;;;;;;;;;;;;;;;;941124;27;19904;-74
2022/11/13 01:26:41;;;;;;;;;;;;;;;;;;941131;27;19907;-73
2022/11/13 01:27:14;;;;;;;;;;;;;;;;;;941139;27;19946;-76
2022/11/13 01:27:44;;;;;;;;;;;;;;;;;;941063;27;19904;-74
2022/11/13 01:28:18;;;;;;;;;;;;;;;;;;941047;27;19924;-75
2022/11/13 01:28:49;;;;;;;;;;;;;;;;;;941076;27;19907;-74
2022/11/13 01:29:19;;;;;;;;;;;;;;;;;;941147;27;19907;-75
2022/11/13 01:29:52;;;;;;;;;;;;;;;;;;941173;27;19915;-74
2022/11/13 01:30:23;;;;;;;;;;;;;;;;;;941035;27;20216;-74
2022/11/13 01:30:54;;;;;;;;;;;;;;;;;;941075;27;19912;-75
2022/11/13 01:31:28;;;;;;;;;;;;;;;;;;941074;27;19908;-74
2022/11/13 01:31:58;;;;;;;;;;;;;;;;;;941101;27;19950;-75
2022/11/13 01:32:29;;;;;;;;;;;;;;;;;;941352;27;19914;-74
2022/11/13 01:33:02;;;;;;;;;;;;;;;;;;941160;27;20236;-76
2022/11/13 01:33:36;;;;;;;;;;;;;;;;;;941119;27;19907;-75
2022/11/13 01:34:06;;;;;;;;;;;;;;;;;;941095;27;19919;-74
2022/11/13 01:34:40;;;;;;;;;;;;;;;;;;941217;27;19915;-74
2022/11/13 01:35:10;;;;;;;;;;;;;;;;;;941060;27;19908;-78
2022/11/13 01:35:41;;;;;;;;;;;;;;;;;;940998;27;19907;-77
2022/11/13 01:36:13;;;;;;;;;;;;;;;;;;941002;27;20301;-77
2022/11/13 01:36:46;;;;;;;;;;;;;;;;;;941105;27;19963;-77
2022/11/13 01:37:17;;;;;;;;;;;;;;;;;;941108;27;20242;-76
2022/11/13 01:37:47;;;;;;;;;;;;;;;;;;941000;27;19914;-77
2022/11/13 01:38:18;;;;;;;;;;;;;;;;;;941111;27;20209;-77
2022/11/13 01:38:52;;;;;;;;;;;;;;;;;;940986;27;19926;-77
2022/11/13 01:39:23;;;;;;;;;;;;;;;;;;941064;27;19911;-77
2022/11/13 01:39:53;;;;;;;;;;;;;;;;;;940967;27;20220;-77
2022/11/13 01:40:27;;;;;;;;;;;;;;;;;;941081;27;20171;-77
2022/11/13 01:40:58;;;;;;;;;;;;;;;;;;940911;27;20362;-77
2022/11/13 01:41:29;;;;;;;;;;;;;;;;;;941033;27;19967;-77
2022/11/13 01:42:03;;;;;;;;;;;;;;;;;;941015;27;19951;-77
2022/11/13 01:42:33;;;;;;;;;;;;;;;;;;940939;27;19904;-78
2022/11/13 01:43:13;;;;;;;;;;;;;;;;;;940970;27;19918;-77
2022/11/13 01:43:46;;;;;;;;;;;;;;;;;;940992;27;20266;-77
2022/11/13 01:44:18;;;;;;;;;;;;;;;;;;941001;27;19953;-76
2022/11/13 01:44:49;;;;;;;;;;;;;;;;;;941028;27;19908;-77
2022/11/13 01:45:38;;;;;;;;;;;;;;;;;;940950;27;19922;-77
2022/11/13 01:46:20;;;;;;;;;;;;;;;;;;940986;27;19927;-77
2022/11/13 01:46:55;;;;;;;;;;;;;;;;;;941006;27;19911;-77
2022/11/13 01:47:26;;;;;;;;;;;;;;;;;;941113;27;19907;-78
2022/11/13 01:47:57;;;;;;;;;;;;;;;;;;940946;27;19907;-77
2022/11/13 01:48:31;;;;;;;;;;;;;;;;;;941011;27;19908;-78
2022/11/13 01:49:17;;;;;;;;;;;;;;;;;;941042;27;19908;-77
2022/11/13 01:49:50;;;;;;;;;;;;;;;;;;941068;27;19907;-77
2022/11/13 01:50:21;;;;;;;;;;;;;;;;;;941037;27;19960;-77
2022/11/13 01:50:54;;;;;;;;;;;;;;;;;;940863;27;19969;-77
2022/11/13 01:51:28;;;;;;;;;;;;;;;;;;941021;27;19907;-77
2022/11/13 01:52:00;;;;;;;;;;;;;;;;;;941002;27;20003;-76
2022/11/13 01:52:36;;;;;;;;;;;;;;;;;;940971;27;19907;-77
2022/11/13 01:53:07;;;;;;;;;;;;;;;;;;940720;27;19918;-77
2022/11/13 01:53:40;;;;;;;;;;;;;;;;;;941100;27;19954;-77
2022/11/13 01:54:14;;;;;;;;;;;;;;;;;;940991;27;20221;-77
2022/11/13 01:54:47;;;;;;;;;;;;;;;;;;941079;27;19967;-77
2022/11/13 01:55:18;;;;;;;;;;;;;;;;;;940895;27;20285;-77
2022/11/13 01:55:51;;;;;;;;;;;;;;;;;;941071;27;19908;-77
2022/11/13 01:56:22;;;;;;;;;;;;;;;;;;940998;27;19903;-77
2022/11/13 01:56:53;;;;;;;;;;;;;;;;;;940955;27;20208;-77
2022/11/13 01:57:28;;;;;;;;;;;;;;;;;;940964;27;19908;-77
2022/11/13 01:57:59;;;;;;;;;;;;;;;;;;941023;27;19970;-77
2022/11/13 01:58:30;;;;;;;;;;;;;;;;;;940976;27;19960;-77
2022/11/13 01:59:05;;;;;;;;;;;;;;;;;;941071;27;20269;-77
2022/11/13 01:59:38;;;;;;;;;;;;;;;;;;940929;27;19942;-78
2022/11/13 02:00:10;;;;;;;;;;;;;;;;;;940919;27;19915;-77
2022/11/13 02:00:43;;;;;;;;;;;;;;;;;;940970;27;19914;-77
2022/11/13 02:01:14;;;;;;;;;;;;;;;;;;940967;27;19918;-77
2022/11/13 02:01:44;;;;;;;;;;;;;;;;;;941073;27;19911;-76
2022/11/13 02:02:18;;;;;;;;;;;;;;;;;;941022;27;19915;-78
2022/11/13 02:02:48;;;;;;;;;;;;;;;;;;941001;27;19919;-77
2022/11/13 02:03:19;;;;;;;;;;;;;;;;;;940928;27;19954;-77
2022/11/13 02:03:50;;;;;;;;;;;;;;;;;;940998;27;19915;-77
2022/11/13 02:04:26;;;;;;;;;;;;;;;;;;940951;27;20242;-78
2022/11/13 02:04:57;;;;;;;;;;;;;;;;;;940978;27;19919;-78
2022/11/13 02:05:28;;;;;;;;;;;;;;;;;;940917;27;20159;-77
2022/11/13 02:05:59;;;;;;;;;;;;;;;;;;941011;27;19916;-78
2022/11/13 02:06:37;;;;;;;;;;;;;;;;;;940874;27;19911;-77
2022/11/13 02:07:08;;;;;;;;;;;;;;;;;;940997;27;20140;-77
2022/11/13 02:07:39;;;;;;;;;;;;;;;;;;941069;27;19908;-77
2022/11/13 02:08:12;;;;;;;;;;;;;;;;;;941021;27;19916;-77
2022/11/13 02:08:44;;;;;;;;;;;;;;;;;;940947;27;19907;-78
2022/11/13 02:09:15;;;;;;;;;;;;;;;;;;940960;27;19918;-77
2022/11/13 02:09:50;;;;;;;;;;;;;;;;;;941033;27;19955;-77
2022/11/13 02:10:20;;;;;;;;;;;;;;;;;;940919;27;20221;-77
2022/11/13 02:10:51;;;;;;;;;;;;;;;;;;940990;27;19908;-77
2022/11/13 02:11:25;;;;;;;;;;;;;;;;;;940991;27;19911;-77
2022/11/13 02:11:55;;;;;;;;;;;;;;;;;;940953;27;19908;-78
2022/11/13 02:12:30;;;;;;;;;;;;;;;;;;940959;27;20125;-77
2022/11/13 02:13:03;;;;;;;;;;;;;;;;;;940975;27;19968;-77
2022/11/13 02:13:36;;;;;;;;;;;;;;;;;;940912;27;20164;-77
2022/11/13 02:14:07;;;;;;;;;;;;;;;;;;941036;27;19915;-77
2022/11/13 02:14:42;;;;;;;;;;;;;;;;;;940920;27;19955;-77
2022/11/13 02:15:13;;;;;;;;;;;;;;;;;;940982;27;19908;-77
2022/11/13 02:15:44;;;;;;;;;;;;;;;;;;940887;27;20232;-77
2022/11/13 02:16:18;;;;;;;;;;;;;;;;;;940959;27;20152;-77
2022/11/13 02:16:52;;;;;;;;;;;;;;;;;;940906;27;19907;-76
2022/11/13 02:17:25;;;;;;;;;;;;;;;;;;940891;27;19908;-78
2022/11/13 02:18:00;;;;;;;;;;;;;;;;;;940979;27;19907;-78
2022/11/13 02:18:31;;;;;;;;;;;;;;;;;;940915;27;19907;-77
2022/11/13 02:19:03;;;;;;;;;;;;;;;;;;941050;27;19967;-76
2022/11/13 02:19:41;;;;;;;;;;;;;;;;;;940940;27;19915;-77
2022/11/13 02:20:12;;;;;;;;;;;;;;;;;;941046;27;19956;-77
2022/11/13 02:20:46;;;;;;;;;;;;;;;;;;940307;27;19924;-77
2022/11/13 02:21:24;;;;;;;;;;;;;;;;;;940760;27;19923;-77
2022/11/13 02:21:58;;;;;;;;;;;;;;;;;;940911;27;19918;-77
2022/11/13 02:22:34;;;;;;;;;;;;;;;;;;940973;27;19963;-77
2022/11/13 02:23:13;;;;;;;;;;;;;;;;;;941069;27;19986;-77
2022/11/13 02:23:48;;;;;;;;;;;;;;;;;;940979;27;19927;-77
2022/11/13 02:24:24;;;;;;;;;;;;;;;;;;941089;27;20209;-77
2022/11/13 02:25:00;;;;;;;;;;;;;;;;;;940883;27;19907;-77
2022/11/13 02:25:31;;;;;;;;;;;;;;;;;;940847;27;19949;-77
2022/11/13 02:26:02;;;;;;;;;;;;;;;;;;940914;27;20212;-77
2022/11/13 02:26:36;;;;;;;;;;;;;;;;;;940861;27;20212;-78
2022/11/13 02:27:09;;;;;;;;;;;;;;;;;;940926;27;19907;-76
2022/11/13 02:27:44;;;;;;;;;;;;;;;;;;940913;27;19907;-78
2022/11/13 02:28:15;;;;;;;;;;;;;;;;;;940998;27;20209;-77
2022/11/13 02:28:46;;;;;;;;;;;;;;;;;;940916;27;19918;-78
2022/11/13 02:29:19;;;;;;;;;;;;;;;;;;941067;27;19908;-77
2022/11/13 02:29:49;;;;;;;;;;;;;;;;;;940902;27;19918;-76
2022/11/13 02:30:23;;;;;;;;;;;;;;;;;;941044;27;19919;-78
2022/11/13 02:30:56;;;;;;;;;;;;;;;;;;940918;27;19960;-78
2022/11/13 02:31:27;;;;;;;;;;;;;;;;;;940839;27;19918;-76
2022/11/13 02:31:57;;;;;;;;;;;;;;;;;;940845;27;19907;-77
2022/11/13 02:32:31;;;;;;;;;;;;;;;;;;941036;27;19955;-77
2022/11/13 02:33:16;;;;;;;;;;;;;;;;;;940844;27;19907;-77
2022/11/13 02:33:47;;;;;;;;;;;;;;;;;;940909;27;20252;-77
2022/11/13 02:34:20;;;;;;;;;;;;;;;;;;940957;27;19959;-75
2022/11/13 02:34:51;;;;;;;;;;;;;;;;;;940972;27;19914;-75
2022/11/13 02:35:23;;;;;;;;;;;;;;;;;;940976;27;19926;-75
2022/11/13 02:35:54;;;;;;;;;;;;;;;;;;940932;27;19907;-74
2022/11/13 02:36:28;;;;;;;;;;;;;;;;;;940950;27;19959;-75
2022/11/13 02:36:59;;;;;;;;;;;;;;;;;;940975;27;19911;-75
2022/11/13 02:37:30;;;;;;;;;;;;;;;;;;940968;27;19907;-74
2022/11/13 02:38:04;;;;;;;;;;;;;;;;;;940967;27;19940;-75
2022/11/13 02:38:36;;;;;;;;;;;;;;;;;;940934;27;19904;-75
2022/11/13 02:39:08;;;;;;;;;;;;;;;;;;941027;27;19926;-75
2022/11/13 02:39:44;;;;;;;;;;;;;;;;;;941046;27;19968;-75
2022/11/13 02:40:15;;;;;;;;;;;;;;;;;;940950;27;19914;-75
2022/11/13 02:40:46;;;;;;;;;;;;;;;;;;940925;27;20411;-75
2022/11/13 02:41:19;;;;;;;;;;;;;;;;;;940948;27;19915;-75
2022/11/13 02:41:50;;;;;;;;;;;;;;;;;;940900;27;20164;-75
2022/11/13 02:42:20;;;;;;;;;;;;;;;;;;941081;27;19908;-73
2022/11/13 02:42:53;;;;;;;;;;;;;;;;;;941011;27;20838;-75
2022/11/13 02:43:24;;;;;;;;;;;;;;;;;;941111;27;19907;-75
2022/11/13 02:43:55;;;;;;;;;;;;;;;;;;940925;27;19907;-75
2022/11/13 02:44:28;;;;;;;;;;;;;;;;;;940931;27;19914;-76
2022/11/13 02:45:00;;;;;;;;;;;;;;;;;;940899;27;19907;-74
2022/11/13 02:45:30;;;;;;;;;;;;;;;;;;940899;27;20141;-74
2022/11/13 02:46:03;;;;;;;;;;;;;;;;;;940958;27;19907;-75
2022/11/13 02:46:34;;;;;;;;;;;;;;;;;;941063;27;20208;-76
2022/11/13 02:47:05;;;;;;;;;;;;;;;;;;940853;27;19904;-75
2022/11/13 02:47:35;;;;;;;;;;;;;;;;;;941087;27;19942;-75
2022/11/13 02:48:09;;;;;;;;;;;;;;;;;;940878;27;20352;-75
2022/11/13 02:48:40;;;;;;;;;;;;;;;;;;940970;27;20209;-75
2022/11/13 02:49:10;;;;;;;;;;;;;;;;;;940906;27;19911;-75
2022/11/13 02:49:44;;;;;;;;;;;;;;;;;;941002;27;19908;-75
2022/11/13 02:50:14;;;;;;;;;;;;;;;;;;940898;27;20225;-75
2022/11/13 02:50:45;;;;;;;;;;;;;;;;;;940985;27;19918;-74
2022/11/13 02:51:18;;;;;;;;;;;;;;;;;;941002;27;20179;-75
2022/11/13 02:51:49;;;;;;;;;;;;;;;;;;940905;27;19907;-75
2022/11/13 02:52:20;;;;;;;;;;;;;;;;;;940871;27;20144;-75
2022/11/13 02:52:50;;;;;;;;;;;;;;;;;;940939;27;19964;-75
2022/11/13 02:53:23;;;;;;;;;;;;;;;;;;940898;27;19926;-75
2022/11/13 02:53:54;;;;;;;;;;;;;;;;;;940891;27;19911;-75
2022/11/13 02:54:25;;;;;;;;;;;;;;;;;;940951;27;20220;-74
2022/11/13 02:55:01;;;;;;;;;;;;;;;;;;940980;27;19959;-75
2022/11/13 02:55:32;;;;;;;;;;;;;;;;;;940922;27;20159;-75
2022/11/13 02:56:03;;;;;;;;;;;;;;;;;;940807;27;19914;-75
2022/11/13 02:56:36;;;;;;;;;;;;;;;;;;941070;27;20126;-75
2022/11/13 02:57:06;;;;;;;;;;;;;;;;;;940893;27;19939;-74
2022/11/13 02:57:37;;;;;;;;;;;;;;;;;;941008;27;19907;-74
2022/11/13 02:58:08;;;;;;;;;;;;;;;;;;940871;27;19918;-74
2022/11/13 02:58:41;;;;;;;;;;;;;;;;;;940918;27;19963;-74
2022/11/13 02:59:12;;;;;;;;;;;;;;;;;;940762;27;19907;-76
2022/11/13 02:59:42;;;;;;;;;;;;;;;;;;940960;27;19911;-75
2022/11/13 03:00:16;;;;;;;;;;;;;;;;;;940888;27;19907;-75
2022/11/13 03:00:47;;;;;;;;;;;;;;;;;;940864;27;19915;-74
2022/11/13 03:01:17;;;;;;;;;;;;;;;;;;940919;27;19911;-75
2022/11/13 03:01:51;;;;;;;;;;;;;;;;;;940960;27;19915;-75
2022/11/13 03:02:21;;;;;;;;;;;;;;;;;;940940;27;19914;-75
2022/11/13 03:02:52;;;;;;;;;;;;;;;;;;940892;27;19954;-76
2022/11/13 03:03:23;;;;;;;;;;;;;;;;;;940874;27;19959;-75
2022/11/13 03:03:56;;;;;;;;;;;;;;;;;;940932;27;20212;-75
2022/11/13 03:04:27;;;;;;;;;;;;;;;;;;940578;27;19907;-75
2022/11/13 03:04:57;;;;;;;;;;;;;;;;;;940530;27;19911;-75
2022/11/13 03:05:28;;;;;;;;;;;;;;;;;;940952;27;19916;-76
2022/11/13 03:06:01;;;;;;;;;;;;;;;;;;940863;27;19907;-74
2022/11/13 03:06:32;;;;;;;;;;;;;;;;;;940857;27;19939;-75
2022/11/13 03:07:03;;;;;;;;;;;;;;;;;;940915;27;19908;-75
2022/11/13 03:07:36;;;;;;;;;;;;;;;;;;940902;27;19915;-74
2022/11/13 03:08:07;;;;;;;;;;;;;;;;;;940912;27;19907;-74
2022/11/13 03:08:37;;;;;;;;;;;;;;;;;;940853;27;19907;-75
2022/11/13 03:09:10;;;;;;;;;;;;;;;;;;940956;27;19907;-75
2022/11/13 03:09:41;;;;;;;;;;;;;;;;;;940880;27;19908;-74
2022/11/13 03:10:15;;;;;;;;;;;;;;;;;;940929;27;19912;-74
2022/11/13 03:10:48;;;;;;;;;;;;;;;;;;940840;27;19950;-75
2022/11/13 03:11:18;;;;;;;;;;;;;;;;;;940943;27;19908;-76
2022/11/13 03:11:49;;;;;;;;;;;;;;;;;;940981;27;19919;-75
2022/11/13 03:12:22;;;;;;;;;;;;;;;;;;940838;27;19950;-75
2022/11/13 03:12:53;;;;;;;;;;;;;;;;;;940918;27;19908;-75
2022/11/13 03:13:24;;;;;;;;;;;;;;;;;;940956;27;19907;-76
2022/11/13 03:13:57;;;;;;;;;;;;;;;;;;940949;27;19918;-76
2022/11/13 03:14:28;;;;;;;;;;;;;;;;;;940919;27;20013;-75
2022/11/13 03:14:58;;;;;;;;;;;;;;;;;;940987;27;19903;-74
2022/11/13 03:15:32;;;;;;;;;;;;;;;;;;940884;27;19956;-75
2022/11/13 03:16:07;;;;;;;;;;;;;;;;;;940917;27;20466;-73
2022/11/13 03:16:37;;;;;;;;;;;;;;;;;;941006;27;19907;-74
2022/11/13 03:17:10;;;;;;;;;;;;;;;;;;940951;27;19907;-75
2022/11/13 03:17:41;;;;;;;;;;;;;;;;;;940816;27;19911;-75
2022/11/13 03:18:12;;;;;;;;;;;;;;;;;;940978;27;19918;-75
2022/11/13 03:18:45;;;;;;;;;;;;;;;;;;941016;27;20192;-74
2022/11/13 03:19:16;;;;;;;;;;;;;;;;;;941040;27;20243;-74
2022/11/13 03:19:46;;;;;;;;;;;;;;;;;;940942;27;19911;-74
2022/11/13 03:20:17;;;;;;;;;;;;;;;;;;940955;27;19915;-75
2022/11/13 03:20:52;;;;;;;;;;;;;;;;;;940719;27;19922;-75
2022/11/13 03:21:23;;;;;;;;;;;;;;;;;;940847;27;19941;-75
2022/11/13 03:21:54;;;;;;;;;;;;;;;;;;940932;27;20191;-75
2022/11/13 03:22:27;;;;;;;;;;;;;;;;;;940824;27;20187;-75
2022/11/13 03:22:58;;;;;;;;;;;;;;;;;;940845;27;20420;-75
2022/11/13 03:23:29;;;;;;;;;;;;;;;;;;940785;27;19907;-75
2022/11/13 03:24:02;;;;;;;;;;;;;;;;;;940937;27;20282;-74
2022/11/13 03:24:33;;;;;;;;;;;;;;;;;;940963;27;20247;-76
2022/11/13 03:25:04;;;;;;;;;;;;;;;;;;941001;27;19918;-75
2022/11/13 03:25:37;;;;;;;;;;;;;;;;;;940822;27;19965;-74
2022/11/13 03:26:12;;;;;;;;;;;;;;;;;;940890;27;19908;-75
2022/11/13 03:26:43;;;;;;;;;;;;;;;;;;940850;27;19918;-75
2022/11/13 03:27:13;;;;;;;;;;;;;;;;;;940903;27;19907;-74
2022/11/13 03:27:44;;;;;;;;;;;;;;;;;;940899;27;19907;-75
2022/11/13 03:28:17;;;;;;;;;;;;;;;;;;940888;27;20204;-76
2022/11/13 03:28:48;;;;;;;;;;;;;;;;;;940856;27;20158;-74
2022/11/13 03:29:18;;;;;;;;;;;;;;;;;;940989;27;19907;-75
2022/11/13 03:29:49;;;;;;;;;;;;;;;;;;940852;27;20166;-76
2022/11/13 03:30:22;;;;;;;;;;;;;;;;;;940963;27;19933;-75
2022/11/13 03:30:53;;;;;;;;;;;;;;;;;;940672;27;19911;-75
2022/11/13 03:31:24;;;;;;;;;;;;;;;;;;940789;27;20147;-74
2022/11/13 03:31:57;;;;;;;;;;;;;;;;;;940805;27;20216;-74
2022/11/13 03:32:28;;;;;;;;;;;;;;;;;;940976;27;19917;-75
2022/11/13 03:32:58;;;;;;;;;;;;;;;;;;940872;27;19918;-75
2022/11/13 03:33:32;;;;;;;;;;;;;;;;;;940924;27;19915;-75
2022/11/13 03:34:03;;;;;;;;;;;;;;;;;;940790;27;20163;-75
2022/11/13 03:34:33;;;;;;;;;;;;;;;;;;940880;27;19918;-74
2022/11/13 03:35:07;;;;;;;;;;;;;;;;;;940741;27;19919;-75
2022/11/13 03:35:38;;;;;;;;;;;;;;;;;;940911;27;20183;-75
2022/11/13 03:36:09;;;;;;;;;;;;;;;;;;940850;27;19911;-74
2022/11/13 03:36:42;;;;;;;;;;;;;;;;;;940809;27;19907;-74
2022/11/13 03:37:15;;;;;;;;;;;;;;;;;;940868;27;19922;-75
2022/11/13 03:37:45;;;;;;;;;;;;;;;;;;940854;27;20173;-75
2022/11/13 03:38:16;;;;;;;;;;;;;;;;;;940947;27;19907;-74
2022/11/13 03:38:49;;;;;;;;;;;;;;;;;;940872;27;19907;-75
2022/11/13 03:39:20;;;;;;;;;;;;;;;;;;940845;27;19907;-75
2022/11/13 03:39:50;;;;;;;;;;;;;;;;;;940772;27;19907;-75
2022/11/13 03:40:24;;;;;;;;;;;;;;;;;;940803;27;19954;-75
2022/11/13 03:40:58;;;;;;;;;;;;;;;;;;940844;27;19918;-76
2022/11/13 03:41:28;;;;;;;;;;;;;;;;;;940877;27;19926;-75
2022/11/13 03:42:02;;;;;;;;;;;;;;;;;;940864;27;19911;-75
2022/11/13 03:42:33;;;;;;;;;;;;;;;;;;940810;27;19957;-74
2022/11/13 03:43:03;;;;;;;;;;;;;;;;;;940804;27;20242;-75